createdAt,value
2023-03-26T00:00:23.000Z,0
2023-03-26T00:03:02.000Z,0
2023-03-26T00:05:42.000Z,0
2023-03-26T00:08:21.000Z,0
2023-03-26T00:10:59.000Z,0
2023-03-26T00:13:41.000Z,0
2023-03-26T00:16:20.000Z,0
2023-03-26T00:19:00.000Z,0
2023-03-26T00:21:39.000Z,0
2023-03-26T00:24:19.000Z,0
2023-03-26T00:27:00.000Z,0
2023-03-26T00:29:42.000Z,0
2023-03-26T00:32:23.000Z,0
2023-03-26T00:35:02.000Z,0
2023-03-26T00:37:42.000Z,0
2023-03-26T00:40:21.000Z,0
2023-03-26T00:43:02.000Z,0
2023-03-26T00:45:45.000Z,0
2023-03-26T00:48:26.000Z,0
2023-03-26T00:51:09.000Z,0
2023-03-26T00:53:51.000Z,0
2023-03-26T00:56:34.000Z,0
2023-03-26T00:59:13.000Z,0
2023-03-26T01:01:56.000Z,0
2023-03-26T01:04:38.000Z,0
2023-03-26T01:07:19.000Z,0
2023-03-26T01:10:00.000Z,0
2023-03-26T01:12:42.000Z,0
2023-03-26T01:15:25.000Z,0
2023-03-26T01:18:08.000Z,0
2023-03-26T01:20:47.000Z,0
2023-03-26T01:23:31.000Z,0
2023-03-26T01:26:08.000Z,0
2023-03-26T01:28:50.000Z,0
2023-03-26T01:31:31.000Z,0
2023-03-26T01:34:13.000Z,0
2023-03-26T01:36:58.000Z,0
2023-03-26T01:39:44.000Z,0
2023-03-26T01:42:25.000Z,0
2023-03-26T01:45:07.000Z,0
2023-03-26T01:47:49.000Z,0
2023-03-26T01:50:31.000Z,0
2023-03-26T01:53:13.000Z,0
2023-03-26T01:55:53.000Z,0
2023-03-26T01:58:34.000Z,0
2023-03-26T02:01:19.000Z,0
2023-03-26T02:04:01.000Z,0
2023-03-26T02:06:44.000Z,0
2023-03-26T02:09:22.000Z,0
2023-03-26T02:12:03.000Z,0
2023-03-26T02:14:49.000Z,0
2023-03-26T02:17:32.000Z,0
2023-03-26T02:20:14.000Z,0
2023-03-26T02:22:54.000Z,0
2023-03-26T02:25:34.000Z,0
2023-03-26T02:28:14.000Z,0
2023-03-26T02:30:55.000Z,0
2023-03-26T02:33:36.000Z,0
2023-03-26T02:36:17.000Z,0
2023-03-26T02:38:56.000Z,0
2023-03-26T02:41:38.000Z,0
2023-03-26T02:44:18.000Z,0
2023-03-26T02:46:59.000Z,0
2023-03-26T02:49:41.000Z,0
2023-03-26T02:52:21.000Z,0
2023-03-26T02:55:03.000Z,0
2023-03-26T02:57:43.000Z,0
2023-03-26T03:00:25.000Z,0
2023-03-26T03:03:07.000Z,0
2023-03-26T03:05:50.000Z,0
2023-03-26T03:08:31.000Z,0
2023-03-26T03:11:13.000Z,0
2023-03-26T03:13:54.000Z,0
2023-03-26T03:16:35.000Z,0
2023-03-26T03:19:15.000Z,0
2023-03-26T03:21:56.000Z,0
2023-03-26T03:24:36.000Z,0
2023-03-26T03:27:18.000Z,0
2023-03-26T03:29:58.000Z,0
2023-03-26T03:32:43.000Z,0
2023-03-26T03:35:26.000Z,0
2023-03-26T03:38:08.000Z,0
2023-03-26T03:40:48.000Z,0
2023-03-26T03:43:30.000Z,0
2023-03-26T03:46:13.000Z,0
2023-03-26T03:48:55.000Z,0
2023-03-26T03:51:35.000Z,0
2023-03-26T03:54:15.000Z,0
2023-03-26T03:56:56.000Z,0
2023-03-26T03:59:38.000Z,0
2023-03-26T04:02:19.000Z,0
2023-03-26T04:05:00.000Z,0
2023-03-26T04:07:42.000Z,0
2023-03-26T04:10:20.000Z,0
2023-03-26T04:12:59.000Z,0
2023-03-26T04:15:42.000Z,0
2023-03-26T04:18:23.000Z,0
2023-03-26T04:21:05.000Z,0
2023-03-26T04:23:45.000Z,0
2023-03-26T04:26:27.000Z,0
2023-03-26T04:29:10.000Z,0
2023-03-26T04:31:51.000Z,0
2023-03-26T04:34:32.000Z,0
2023-03-26T04:37:14.000Z,0
2023-03-26T04:39:57.000Z,0
2023-03-26T04:42:36.000Z,0
2023-03-26T04:45:17.000Z,0
2023-03-26T04:47:57.000Z,0
2023-03-26T04:50:37.000Z,1
2023-03-26T04:53:19.000Z,2
2023-03-26T04:56:03.000Z,3
2023-03-26T04:58:45.000Z,4
2023-03-26T05:01:27.000Z,5
2023-03-26T05:04:07.000Z,5
2023-03-26T05:06:48.000Z,6
2023-03-26T05:09:30.000Z,7
2023-03-26T05:12:12.000Z,9
2023-03-26T05:14:51.000Z,10
2023-03-26T05:17:34.000Z,11
2023-03-26T05:20:15.000Z,11
2023-03-26T05:22:55.000Z,13
2023-03-26T05:25:36.000Z,16
2023-03-26T05:28:19.000Z,17
2023-03-26T05:31:00.000Z,18
2023-03-26T05:33:44.000Z,18
2023-03-26T05:36:25.000Z,22
2023-03-26T05:39:08.000Z,21
2023-03-26T05:41:49.000Z,20
2023-03-26T05:44:31.000Z,18
2023-03-26T05:47:12.000Z,17
2023-03-26T05:49:52.000Z,16
2023-03-26T05:52:34.000Z,18
2023-03-26T05:55:20.000Z,25
2023-03-26T05:58:01.000Z,24
2023-03-26T06:00:42.000Z,26
2023-03-26T06:03:23.000Z,23
2023-03-26T06:06:04.000Z,30
2023-03-26T06:08:45.000Z,37
2023-03-26T06:11:27.000Z,43
2023-03-26T06:14:08.000Z,50
2023-03-26T06:16:49.000Z,44
2023-03-26T06:19:31.000Z,54
2023-03-26T06:22:12.000Z,52
2023-03-26T06:24:53.000Z,59
2023-03-26T06:27:36.000Z,72
2023-03-26T06:30:17.000Z,80
2023-03-26T06:32:59.000Z,75
2023-03-26T06:35:41.000Z,70
2023-03-26T06:38:23.000Z,60
2023-03-26T06:41:05.000Z,59
2023-03-26T06:43:46.000Z,62
2023-03-26T06:46:26.000Z,63
2023-03-26T06:49:08.000Z,70
2023-03-26T06:51:46.000Z,71
2023-03-26T06:54:26.000Z,79
2023-03-26T06:57:09.000Z,88
2023-03-26T06:59:47.000Z,93
2023-03-26T07:02:27.000Z,98
2023-03-26T07:05:09.000Z,100
2023-03-26T07:07:49.000Z,98
2023-03-26T07:10:27.000Z,101
2023-03-26T07:13:09.000Z,95
2023-03-26T07:15:47.000Z,101
2023-03-26T07:18:30.000Z,111
2023-03-26T07:21:08.000Z,105
2023-03-26T07:23:49.000Z,113
2023-03-26T07:26:31.000Z,118
2023-03-26T07:29:15.000Z,125
2023-03-26T07:31:56.000Z,129
2023-03-26T07:34:39.000Z,135
2023-03-26T07:37:19.000Z,139
2023-03-26T07:40:00.000Z,133
2023-03-26T07:42:42.000Z,130
2023-03-26T07:45:25.000Z,155
2023-03-26T07:48:08.000Z,165
2023-03-26T07:50:48.000Z,172
2023-03-26T07:53:30.000Z,182
2023-03-26T07:56:14.000Z,198
2023-03-26T07:58:56.000Z,201
2023-03-26T08:01:38.000Z,206
2023-03-26T08:04:18.000Z,193
2023-03-26T08:06:59.000Z,196
2023-03-26T08:09:40.000Z,207
2023-03-26T08:12:21.000Z,218
2023-03-26T08:15:01.000Z,234
2023-03-26T08:17:43.000Z,239
2023-03-26T08:20:23.000Z,232
2023-03-26T08:23:05.000Z,223
2023-03-26T08:25:45.000Z,236
2023-03-26T08:28:27.000Z,232
2023-03-26T08:31:09.000Z,228
2023-03-26T08:33:51.000Z,210
2023-03-26T08:36:32.000Z,209
2023-03-26T08:39:13.000Z,228
2023-03-26T08:41:55.000Z,284
2023-03-26T08:44:38.000Z,345
2023-03-26T08:47:19.000Z,523
2023-03-26T08:50:01.000Z,428
2023-03-26T08:52:40.000Z,512
2023-03-26T08:55:20.000Z,366
2023-03-26T08:58:04.000Z,367
2023-03-26T09:00:45.000Z,530
2023-03-26T09:03:29.000Z,536
2023-03-26T09:06:09.000Z,272
2023-03-26T09:08:50.000Z,326
2023-03-26T09:11:31.000Z,325
2023-03-26T09:14:12.000Z,313
2023-03-26T09:16:53.000Z,558
2023-03-26T09:19:34.000Z,415
2023-03-26T09:22:16.000Z,512
2023-03-26T09:24:57.000Z,471
2023-03-26T09:27:39.000Z,268
2023-03-26T09:30:20.000Z,237
2023-03-26T09:33:01.000Z,284
2023-03-26T09:35:42.000Z,325
2023-03-26T09:38:23.000Z,263
2023-03-26T09:41:06.000Z,263
2023-03-26T09:43:45.000Z,235
2023-03-26T09:46:26.000Z,257
2023-03-26T09:49:08.000Z,245
2023-03-26T09:51:48.000Z,235
2023-03-26T09:54:32.000Z,300
2023-03-26T09:57:14.000Z,430
2023-03-26T09:59:57.000Z,307
2023-03-26T10:02:39.000Z,263
2023-03-26T10:05:20.000Z,222
2023-03-26T10:08:02.000Z,226
2023-03-26T10:10:42.000Z,232
2023-03-26T10:13:23.000Z,296
2023-03-26T10:16:07.000Z,312
2023-03-26T10:18:47.000Z,379
2023-03-26T10:21:31.000Z,350
2023-03-26T10:24:13.000Z,328
2023-03-26T10:26:54.000Z,351
2023-03-26T10:29:35.000Z,364
2023-03-26T10:32:16.000Z,419
2023-03-26T10:34:56.000Z,342
2023-03-26T10:37:35.000Z,296
2023-03-26T10:40:17.000Z,532
2023-03-26T10:43:00.000Z,524
2023-03-26T10:45:42.000Z,587
2023-03-26T10:48:27.000Z,403
2023-03-26T10:51:08.000Z,334
2023-03-26T10:53:53.000Z,675
2023-03-26T10:56:36.000Z,593
2023-03-26T10:59:18.000Z,367
2023-03-26T11:02:00.000Z,339
2023-03-26T11:04:39.000Z,349
2023-03-26T11:07:23.000Z,392
2023-03-26T11:10:04.000Z,401
2023-03-26T11:12:44.000Z,467
2023-03-26T11:15:26.000Z,330
2023-03-26T11:18:07.000Z,309
2023-03-26T11:20:49.000Z,268
2023-03-26T11:23:31.000Z,274
2023-03-26T11:26:13.000Z,295
2023-03-26T11:28:56.000Z,298
2023-03-26T11:31:38.000Z,248
2023-03-26T11:34:19.000Z,253
2023-03-26T11:37:00.000Z,244
2023-03-26T11:39:43.000Z,245
2023-03-26T11:42:23.000Z,257
2023-03-26T11:45:04.000Z,274
2023-03-26T11:47:42.000Z,276
2023-03-26T11:50:22.000Z,268
2023-03-26T11:53:02.000Z,249
2023-03-26T11:55:43.000Z,200
2023-03-26T11:58:23.000Z,174
2023-03-26T12:01:01.000Z,157
2023-03-26T12:03:44.000Z,139
2023-03-26T12:06:26.000Z,127
2023-03-26T12:09:10.000Z,125
2023-03-26T12:11:51.000Z,125
2023-03-26T12:14:35.000Z,115
2023-03-26T12:17:18.000Z,97
2023-03-26T12:19:58.000Z,89
2023-03-26T12:22:45.000Z,97
2023-03-26T12:25:26.000Z,123
2023-03-26T12:28:09.000Z,150
2023-03-26T12:30:52.000Z,176
2023-03-26T12:33:34.000Z,188
2023-03-26T12:36:18.000Z,204
2023-03-26T12:36:18.000Z,204
2023-03-26T12:39:02.000Z,233
2023-03-26T12:39:02.000Z,233
2023-03-26T12:41:44.000Z,240
2023-03-26T12:41:44.000Z,240
2023-03-26T12:44:25.000Z,222
2023-03-26T12:44:25.000Z,222
2023-03-26T12:47:09.000Z,210
2023-03-26T12:49:51.000Z,207
2023-03-26T12:52:33.000Z,216
2023-03-26T12:55:16.000Z,216
2023-03-26T12:57:59.000Z,212
2023-03-26T13:00:42.000Z,212
2023-03-26T13:03:25.000Z,202
2023-03-26T13:06:11.000Z,175
2023-03-26T13:08:52.000Z,126
2023-03-26T13:11:35.000Z,98
2023-03-26T13:14:17.000Z,92
2023-03-26T13:17:00.000Z,105
2023-03-26T13:19:44.000Z,137
2023-03-26T13:22:27.000Z,167
2023-03-26T13:25:09.000Z,184
2023-03-26T13:27:52.000Z,187
2023-03-26T13:30:35.000Z,183
2023-03-26T13:33:19.000Z,173
2023-03-26T13:36:01.000Z,161
2023-03-26T13:38:44.000Z,151
2023-03-26T13:41:26.000Z,146
2023-03-26T13:44:08.000Z,144
2023-03-26T13:46:51.000Z,144
2023-03-26T13:49:34.000Z,142
2023-03-26T13:52:16.000Z,138
2023-03-26T13:54:59.000Z,132
2023-03-26T13:57:42.000Z,126
2023-03-26T14:00:23.000Z,118
2023-03-26T14:03:06.000Z,107
2023-03-26T14:05:48.000Z,97
2023-03-26T14:08:31.000Z,89
2023-03-26T14:11:14.000Z,85
2023-03-26T14:13:56.000Z,85
2023-03-26T14:16:37.000Z,86
2023-03-26T14:19:20.000Z,87
2023-03-26T14:22:02.000Z,86
2023-03-26T14:24:44.000Z,84
2023-03-26T14:27:27.000Z,83
2023-03-26T14:30:09.000Z,81
2023-03-26T14:32:51.000Z,78
2023-03-26T14:35:39.000Z,78
2023-03-26T14:38:20.000Z,75
2023-03-26T14:41:05.000Z,74
2023-03-26T14:43:46.000Z,73
2023-03-26T14:46:27.000Z,74
2023-03-26T14:49:11.000Z,76
2023-03-26T14:51:53.000Z,78
2023-03-26T14:54:35.000Z,78
2023-03-26T14:57:16.000Z,78
2023-03-26T14:59:59.000Z,76
2023-03-26T15:02:41.000Z,76
2023-03-26T15:05:24.000Z,76
2023-03-26T15:08:10.000Z,75
2023-03-26T15:10:52.000Z,74
2023-03-26T15:13:35.000Z,73
2023-03-26T15:16:17.000Z,73
2023-03-26T15:19:00.000Z,73
2023-03-26T15:21:41.000Z,72
2023-03-26T15:24:26.000Z,71
2023-03-26T15:27:08.000Z,68
2023-03-26T15:29:52.000Z,64
2023-03-26T15:32:35.000Z,59
2023-03-26T15:35:16.000Z,49
2023-03-26T15:37:57.000Z,46
2023-03-26T15:40:41.000Z,48
2023-03-26T15:43:22.000Z,46
2023-03-26T15:46:06.000Z,45
2023-03-26T15:48:49.000Z,45
2023-03-26T15:51:31.000Z,45
2023-03-26T15:54:11.000Z,44
2023-03-26T15:56:56.000Z,41
2023-03-26T15:59:37.000Z,40
2023-03-26T16:02:20.000Z,39
2023-03-26T16:05:02.000Z,39
2023-03-26T16:07:43.000Z,39
2023-03-26T16:10:24.000Z,36
2023-03-26T16:13:07.000Z,31
2023-03-26T16:15:48.000Z,33
2023-03-26T16:18:32.000Z,33
2023-03-26T16:21:15.000Z,33
2023-03-26T16:23:58.000Z,32
2023-03-26T16:26:41.000Z,32
2023-03-26T16:29:29.000Z,30
2023-03-26T16:32:13.000Z,28
2023-03-26T16:35:01.000Z,25
2023-03-26T16:37:44.000Z,22
2023-03-26T16:40:27.000Z,20
2023-03-26T16:43:07.000Z,18
2023-03-26T16:45:50.000Z,17
2023-03-26T16:48:36.000Z,16
2023-03-26T16:51:21.000Z,16
2023-03-26T16:54:04.000Z,15
2023-03-26T16:56:54.000Z,14
2023-03-26T16:59:40.000Z,13
2023-03-26T17:02:21.000Z,12
2023-03-26T17:05:04.000Z,11
2023-03-26T17:07:46.000Z,10
2023-03-26T17:10:34.000Z,9
2023-03-26T17:13:18.000Z,8
2023-03-26T17:16:01.000Z,6
2023-03-26T17:18:44.000Z,5
2023-03-26T17:21:28.000Z,3
2023-03-26T17:24:11.000Z,2
2023-03-26T17:26:52.000Z,2
2023-03-26T17:29:37.000Z,1
2023-03-26T17:32:26.000Z,1
2023-03-26T17:35:21.000Z,1
2023-03-26T17:38:06.000Z,0
2023-03-26T17:40:51.000Z,0
2023-03-26T17:43:37.000Z,0
2023-03-26T17:46:20.000Z,0
2023-03-26T17:49:00.000Z,0
2023-03-26T17:51:41.000Z,0
2023-03-26T17:54:25.000Z,0
2023-03-26T17:57:08.000Z,0
2023-03-26T17:59:51.000Z,0
2023-03-26T18:02:34.000Z,0
2023-03-26T18:05:16.000Z,0
2023-03-26T18:08:00.000Z,0
2023-03-26T18:10:43.000Z,0
2023-03-26T18:13:27.000Z,0
2023-03-26T18:16:09.000Z,0
2023-03-26T18:18:50.000Z,0
2023-03-26T18:21:34.000Z,0
2023-03-26T18:24:17.000Z,0
2023-03-26T18:27:00.000Z,0
2023-03-26T18:29:43.000Z,0
2023-03-26T18:32:25.000Z,0
2023-03-26T18:35:08.000Z,0
2023-03-26T18:37:51.000Z,0
2023-03-26T18:40:35.000Z,0
2023-03-26T18:43:18.000Z,0
2023-03-26T18:45:58.000Z,0
2023-03-26T18:48:39.000Z,0
2023-03-26T18:51:31.000Z,0
2023-03-26T18:54:19.000Z,0
2023-03-26T18:57:02.000Z,0
2023-03-26T18:59:45.000Z,0
2023-03-26T19:02:27.000Z,0
2023-03-26T19:05:10.000Z,0
2023-03-26T19:07:52.000Z,0
2023-03-26T19:10:36.000Z,0
2023-03-26T19:13:22.000Z,0
2023-03-26T19:16:07.000Z,0
2023-03-26T19:18:48.000Z,0
2023-03-26T19:21:31.000Z,0
2023-03-26T19:24:12.000Z,0
2023-03-26T19:26:57.000Z,0
2023-03-26T19:29:45.000Z,0
2023-03-26T19:32:27.000Z,0
2023-03-26T19:35:09.000Z,0
2023-03-26T19:37:54.000Z,0
2023-03-26T19:40:40.000Z,0
2023-03-26T19:43:22.000Z,0
2023-03-26T19:46:05.000Z,0
2023-03-26T19:48:47.000Z,0
2023-03-26T19:51:30.000Z,0
2023-03-26T19:54:12.000Z,0
2023-03-26T19:56:52.000Z,0
2023-03-26T19:59:36.000Z,0
2023-03-26T20:02:18.000Z,0
2023-03-26T20:04:59.000Z,0
2023-03-26T20:07:41.000Z,0
2023-03-26T20:10:26.000Z,0
2023-03-26T20:13:11.000Z,0
2023-03-26T20:15:53.000Z,0
2023-03-26T20:18:36.000Z,0
2023-03-26T20:21:20.000Z,0
2023-03-26T20:24:04.000Z,0
2023-03-26T20:26:46.000Z,0
2023-03-26T20:29:33.000Z,0
2023-03-26T20:32:18.000Z,0
2023-03-26T20:35:02.000Z,0
2023-03-26T20:37:44.000Z,0
2023-03-26T20:40:28.000Z,0
2023-03-26T20:43:08.000Z,0
2023-03-26T20:45:59.000Z,0
2023-03-26T20:48:42.000Z,0
2023-03-26T20:51:28.000Z,0
2023-03-26T20:54:09.000Z,0
2023-03-26T20:56:51.000Z,0
2023-03-26T20:59:36.000Z,0
2023-03-26T21:02:17.000Z,0
2023-03-26T21:04:59.000Z,0
2023-03-26T21:07:42.000Z,0
2023-03-26T21:10:22.000Z,0
2023-03-26T21:13:04.000Z,0
2023-03-26T21:15:51.000Z,0
2023-03-26T21:18:35.000Z,0
2023-03-26T21:21:18.000Z,0
2023-03-26T21:24:02.000Z,0
2023-03-26T21:26:43.000Z,0
2023-03-26T21:29:26.000Z,0
2023-03-26T21:32:08.000Z,0
2023-03-26T21:34:52.000Z,0
2023-03-26T21:37:40.000Z,0
2023-03-26T21:40:22.000Z,0
2023-03-26T21:43:06.000Z,0
2023-03-26T21:45:50.000Z,0
2023-03-26T21:48:32.000Z,0
2023-03-26T21:51:15.000Z,0
2023-03-26T21:53:58.000Z,0
2023-03-26T21:56:43.000Z,0
2023-03-26T21:59:27.000Z,0
2023-03-26T22:02:12.000Z,0
2023-03-26T22:04:53.000Z,0
2023-03-26T22:07:37.000Z,0
2023-03-26T22:10:18.000Z,0
2023-03-26T22:13:02.000Z,0
2023-03-26T22:15:43.000Z,0
2023-03-26T22:18:25.000Z,0
2023-03-26T22:21:08.000Z,0
2023-03-26T22:23:54.000Z,0
2023-03-26T22:26:42.000Z,0
2023-03-26T22:29:24.000Z,0
2023-03-26T22:32:08.000Z,0
2023-03-26T22:34:49.000Z,0
2023-03-26T22:37:36.000Z,0
2023-03-26T22:40:19.000Z,0
2023-03-26T22:43:01.000Z,0
2023-03-26T22:45:43.000Z,0
2023-03-26T22:48:27.000Z,0
2023-03-26T22:51:11.000Z,0
2023-03-26T22:53:53.000Z,0
2023-03-26T22:56:35.000Z,0
2023-03-26T22:59:18.000Z,0
2023-03-26T23:02:03.000Z,0
2023-03-26T23:04:44.000Z,0
2023-03-26T23:07:29.000Z,0
2023-03-26T23:10:12.000Z,0
2023-03-26T23:12:53.000Z,0
2023-03-26T23:15:37.000Z,0
2023-03-26T23:18:19.000Z,0
2023-03-26T23:21:01.000Z,0
2023-03-26T23:23:44.000Z,0
2023-03-26T23:26:28.000Z,0
2023-03-26T23:29:11.000Z,0
2023-03-26T23:31:58.000Z,0
2023-03-26T23:34:41.000Z,0
2023-03-26T23:37:21.000Z,0
2023-03-26T23:40:10.000Z,0
2023-03-26T23:42:54.000Z,0
2023-03-26T23:45:37.000Z,0
2023-03-26T23:48:20.000Z,0
2023-03-26T23:50:59.000Z,0
2023-03-26T23:53:45.000Z,0
2023-03-26T23:56:29.000Z,0
2023-03-26T23:59:13.000Z,0
